createdAt,value
2023-03-03T00:01:44.219Z,11.73
2023-03-03T00:04:11.024Z,10.23
2023-03-03T00:06:37.754Z,9.88
2023-03-03T00:09:04.492Z,12.50
2023-03-03T00:11:31.247Z,15.23
2023-03-03T00:13:58.313Z,11.13
2023-03-03T00:16:25.336Z,9.98
2023-03-03T00:18:53.300Z,10.52
2023-03-03T00:21:29.292Z,10.43
2023-03-03T00:24:12.768Z,11.45
2023-03-03T00:26:41.669Z,12.88
2023-03-03T00:29:31.972Z,10.35
2023-03-03T00:32:36.498Z,10.38
2023-03-03T00:35:35.638Z,11.13
2023-03-03T00:38:14.340Z,10.02
2023-03-03T00:40:41.668Z,10.93
2023-03-03T00:43:21.834Z,10.02
2023-03-03T00:45:56.831Z,12.93
2023-03-03T00:48:41.431Z,11.35
2023-03-03T00:51:31.989Z,11.25
2023-03-03T00:53:59.608Z,11.68
2023-03-03T00:56:27.336Z,11.38
2023-03-03T00:58:54.346Z,11.25
2023-03-03T01:01:21.266Z,10.65
2023-03-03T01:03:48.180Z,9.75
2023-03-03T01:06:15.353Z,12.02
2023-03-03T01:08:42.259Z,9.77
2023-03-03T01:11:13.651Z,11.48
2023-03-03T01:13:42.798Z,11.32
2023-03-03T01:16:09.746Z,12.13
2023-03-03T01:18:37.349Z,9.90
2023-03-03T01:21:05.503Z,10.30
2023-03-03T01:23:32.292Z,12.48
2023-03-03T01:25:59.102Z,11.80
2023-03-03T01:28:25.972Z,10.52
2023-03-03T01:30:52.852Z,10.52
2023-03-03T01:33:19.979Z,9.38
2023-03-03T01:35:47.690Z,12.50
2023-03-03T01:38:15.779Z,11.60
2023-03-03T01:40:42.675Z,12.40
2023-03-03T01:43:12.830Z,12.13
2023-03-03T01:45:42.359Z,10.20
2023-03-03T01:48:17.242Z,11.65
2023-03-03T01:50:50.395Z,9.80
2023-03-03T01:53:41.891Z,10.68
2023-03-03T01:56:09.820Z,11.05
2023-03-03T01:58:41.115Z,10.73
2023-03-03T02:01:19.026Z,11.90
2023-03-03T02:03:45.822Z,11.98
2023-03-03T02:06:22.366Z,10.10
2023-03-03T02:09:30.977Z,12.20
2023-03-03T02:12:01.332Z,11.30
2023-03-03T02:14:28.442Z,9.25
2023-03-03T02:16:55.260Z,11.07
2023-03-03T02:20:00.539Z,11.77
2023-03-03T02:22:38.736Z,9.85
2023-03-03T02:25:10.009Z,14.38
2023-03-03T02:27:37.571Z,12.07
2023-03-03T02:30:20.097Z,10.90
2023-03-03T02:32:47.058Z,9.68
2023-03-03T02:35:35.622Z,10.15
2023-03-03T02:38:18.410Z,10.35
2023-03-03T02:41:11.247Z,10.68
2023-03-03T02:43:54.529Z,10.30
2023-03-03T02:46:21.344Z,12.15
2023-03-03T02:48:48.116Z,10.23
2023-03-03T02:51:14.907Z,10.60
2023-03-03T02:53:41.840Z,11.82
2023-03-03T02:56:09.534Z,12.32
2023-03-03T02:58:37.717Z,11.55
2023-03-03T03:01:05.241Z,12.25
2023-03-03T03:03:32.443Z,12.93
2023-03-03T03:05:59.570Z,11.23
2023-03-03T03:08:27.266Z,12.35
2023-03-03T03:10:54.291Z,9.48
2023-03-03T03:13:21.569Z,11.35
2023-03-03T03:15:48.349Z,11.82
2023-03-03T03:18:15.822Z,10.57
2023-03-03T03:20:42.925Z,9.82
2023-03-03T03:23:11.037Z,12.05
2023-03-03T03:25:45.371Z,12.70
2023-03-03T03:28:13.430Z,11.13
2023-03-03T03:30:41.216Z,11.18
2023-03-03T03:33:08.777Z,12.68
2023-03-03T03:35:36.325Z,12.63
2023-03-03T03:38:03.514Z,11.25
2023-03-03T03:40:30.370Z,10.48
2023-03-03T03:42:57.284Z,11.45
2023-03-03T03:45:24.017Z,10.52
2023-03-03T03:47:50.757Z,11.65
2023-03-03T03:50:17.644Z,11.13
2023-03-03T03:52:44.458Z,11.95
2023-03-03T03:55:11.412Z,11.30
2023-03-03T03:57:38.242Z,10.27
2023-03-03T04:00:06.464Z,10.25
2023-03-03T04:02:34.268Z,12.43
2023-03-03T04:05:01.203Z,13.75
2023-03-03T04:07:28.003Z,12.57
2023-03-03T04:09:55.031Z,12.30
2023-03-03T04:12:21.875Z,10.88
2023-03-03T04:14:48.607Z,11.48
2023-03-03T04:17:19.996Z,10.68
2023-03-03T04:19:47.266Z,10.77
2023-03-03T04:22:15.154Z,11.63
2023-03-03T04:24:44.677Z,13.13
2023-03-03T04:27:11.639Z,11.85
2023-03-03T04:29:38.386Z,11.52
2023-03-03T04:32:05.875Z,11.00
2023-03-03T04:34:33.092Z,12.63
2023-03-03T04:36:59.840Z,11.60
2023-03-03T04:39:27.180Z,12.30
2023-03-03T04:41:53.955Z,12.63
2023-03-03T04:44:20.691Z,10.50
2023-03-03T04:46:47.422Z,11.23
2023-03-03T04:49:14.230Z,10.77
2023-03-03T04:51:40.970Z,11.68
2023-03-03T04:54:07.714Z,9.48
2023-03-03T04:56:34.443Z,10.95
2023-03-03T04:59:01.200Z,10.80
2023-03-03T05:01:28.334Z,10.50
2023-03-03T05:03:55.128Z,11.20
2023-03-03T05:06:21.844Z,11.88
2023-03-03T05:08:48.590Z,10.73
2023-03-03T05:11:15.401Z,12.05
2023-03-03T05:13:42.131Z,10.75
2023-03-03T05:16:09.532Z,13.27
2023-03-03T05:18:36.427Z,11.50
2023-03-03T05:21:03.377Z,12.10
2023-03-03T05:23:30.309Z,13.30
2023-03-03T05:25:57.567Z,13.13
2023-03-03T05:28:24.632Z,13.32
2023-03-03T05:30:51.406Z,14.50
2023-03-03T05:33:18.330Z,12.45
2023-03-03T05:35:45.289Z,14.32
2023-03-03T05:38:12.521Z,13.27
2023-03-03T05:40:40.350Z,11.68
2023-03-03T05:43:07.238Z,12.77
2023-03-03T05:45:35.275Z,15.40
2023-03-03T05:48:03.206Z,12.65
2023-03-03T05:50:30.570Z,12.20
2023-03-03T05:52:57.812Z,12.77
2023-03-03T05:55:25.296Z,12.80
2023-03-03T05:57:52.055Z,12.85
2023-03-03T06:00:19.310Z,13.05
2023-03-03T06:02:46.334Z,11.70
2023-03-03T06:05:13.258Z,13.32
2023-03-03T06:07:40.218Z,12.15
2023-03-03T06:10:07.916Z,10.85
2023-03-03T06:12:34.887Z,13.15
2023-03-03T06:15:01.616Z,13.05
2023-03-03T06:17:30.361Z,13.55
2023-03-03T06:19:57.098Z,12.00
2023-03-03T06:22:23.822Z,12.52
2023-03-03T06:24:52.514Z,12.95
2023-03-03T06:27:19.613Z,14.55
2023-03-03T06:29:46.367Z,14.82
2023-03-03T06:32:13.324Z,23.52
2023-03-03T06:34:40.722Z,35.97
2023-03-03T06:37:07.454Z,37.42
2023-03-03T06:39:34.258Z,35.70
2023-03-03T06:42:00.987Z,34.92
2023-03-03T06:44:28.846Z,33.38
2023-03-03T06:46:57.950Z,32.25
2023-03-03T06:49:24.790Z,25.13
2023-03-03T06:51:51.501Z,21.98
2023-03-03T06:54:21.211Z,22.13
2023-03-03T06:56:49.530Z,20.77
2023-03-03T06:59:19.599Z,23.05
2023-03-03T07:01:48.605Z,19.27
2023-03-03T07:04:33.152Z,17.67
2023-03-03T07:07:21.580Z,17.67
2023-03-03T07:09:54.215Z,18.83
2023-03-03T07:12:27.368Z,20.45
2023-03-03T07:15:14.847Z,17.20
2023-03-03T07:17:45.788Z,15.77
2023-03-03T07:20:18.715Z,16.65
2023-03-03T07:22:46.091Z,19.23
2023-03-03T07:25:33.220Z,16.40
2023-03-03T07:28:14.561Z,16.90
2023-03-03T07:30:42.558Z,20.10
2023-03-03T07:33:27.124Z,18.73
2023-03-03T07:35:56.174Z,19.33
2023-03-03T07:38:30.463Z,18.00
2023-03-03T07:41:00.113Z,21.38
2023-03-03T07:43:37.272Z,20.95
2023-03-03T07:46:15.932Z,22.80
2023-03-03T07:48:43.765Z,25.75
2023-03-03T07:51:28.157Z,27.70
2023-03-03T07:54:28.296Z,28.13
2023-03-03T07:57:11.948Z,27.90
2023-03-03T07:59:50.776Z,26.42
2023-03-03T08:02:23.629Z,27.90
2023-03-03T08:04:59.796Z,22.52
2023-03-03T08:07:26.839Z,22.25
2023-03-03T08:10:01.362Z,22.35
2023-03-03T08:12:37.556Z,23.02
2023-03-03T08:15:16.403Z,20.92
2023-03-03T08:17:45.788Z,17.35
2023-03-03T08:20:41.374Z,16.33
2023-03-03T08:23:08.197Z,16.52
2023-03-03T08:25:35.039Z,16.70
2023-03-03T08:28:01.801Z,16.40
2023-03-03T08:30:28.932Z,13.02
2023-03-03T08:32:55.710Z,13.88
2023-03-03T08:35:22.560Z,15.18
2023-03-03T08:37:49.418Z,16.20
2023-03-03T08:40:16.213Z,15.63
2023-03-03T08:42:43.046Z,15.30
2023-03-03T08:45:10.231Z,18.05
2023-03-03T08:47:36.994Z,16.52
2023-03-03T08:50:03.872Z,15.95
2023-03-03T08:52:30.845Z,14.82
2023-03-03T08:54:57.609Z,13.43
2023-03-03T08:57:24.338Z,15.05
2023-03-03T08:59:51.136Z,14.77
2023-03-03T09:02:17.892Z,13.95
2023-03-03T09:04:45.919Z,15.57
2023-03-03T09:07:12.685Z,15.05
2023-03-03T09:09:39.717Z,13.77
2023-03-03T09:12:38.782Z,14.93
2023-03-03T09:15:37.229Z,14.70
2023-03-03T09:18:22.608Z,14.68
2023-03-03T09:20:54.511Z,13.73
2023-03-03T09:23:27.746Z,13.73
2023-03-03T09:25:54.894Z,13.07
2023-03-03T09:28:26.900Z,13.60
2023-03-03T09:30:56.517Z,12.70
2023-03-03T09:33:51.548Z,14.43
2023-03-03T09:36:24.704Z,14.57
2023-03-03T09:38:52.660Z,14.43
2023-03-03T09:41:37.603Z,15.27
2023-03-03T09:44:32.042Z,15.20
2023-03-03T09:47:22.350Z,16.10
2023-03-03T09:50:07.884Z,15.30
2023-03-03T09:52:50.060Z,14.98
2023-03-03T09:55:28.504Z,14.50
2023-03-03T09:58:10.084Z,14.63
2023-03-03T10:00:59.677Z,14.52
2023-03-03T10:03:58.314Z,13.77
2023-03-03T10:06:35.850Z,13.63
2023-03-03T10:09:25.916Z,14.60
2023-03-03T10:11:53.271Z,14.57
2023-03-03T10:14:38.253Z,15.00
2023-03-03T10:17:24.536Z,14.07
2023-03-03T10:20:05.916Z,17.00
2023-03-03T10:22:48.668Z,15.55
2023-03-03T10:25:37.807Z,14.65
2023-03-03T10:28:37.343Z,14.90
2023-03-03T10:31:28.382Z,15.57
2023-03-03T10:33:55.487Z,15.45
2023-03-03T10:36:32.568Z,14.18
2023-03-03T10:39:23.419Z,15.38
2023-03-03T10:42:22.788Z,15.15
2023-03-03T10:45:17.732Z,14.18
2023-03-03T10:48:09.373Z,14.32
2023-03-03T10:50:56.758Z,16.02
2023-03-03T10:53:47.568Z,15.05
2023-03-03T10:56:51.795Z,14.18
2023-03-03T10:59:41.325Z,14.90
2023-03-03T11:02:39.077Z,15.30
2023-03-03T11:05:22.769Z,13.90
2023-03-03T11:07:56.196Z,14.73
2023-03-03T11:10:49.851Z,15.68
2023-03-03T11:13:21.704Z,16.63
2023-03-03T11:16:03.791Z,14.95
2023-03-03T11:18:45.649Z,16.33
2023-03-03T11:21:34.997Z,14.70
2023-03-03T11:24:10.196Z,16.58
2023-03-03T11:26:39.721Z,13.52
2023-03-03T11:29:39.976Z,13.73
2023-03-03T11:32:28.560Z,12.40
2023-03-03T11:35:12.911Z,15.75
2023-03-03T11:38:05.920Z,15.13
2023-03-03T11:40:47.343Z,13.38
2023-03-03T11:43:37.064Z,12.85
2023-03-03T11:46:12.503Z,16.02
2023-03-03T11:48:55.613Z,14.40
2023-03-03T11:51:40.836Z,13.43
2023-03-03T11:54:19.292Z,13.18
2023-03-03T11:56:48.058Z,13.88
2023-03-03T11:59:23.143Z,13.65
2023-03-03T12:01:57.482Z,13.68
2023-03-03T12:04:40.598Z,12.27
2023-03-03T12:07:39.464Z,13.35
2023-03-03T12:10:33.370Z,15.90
2023-03-03T12:13:06.568Z,11.65
2023-03-03T12:15:57.566Z,11.40
2023-03-03T12:18:45.750Z,11.27
2023-03-03T12:21:44.879Z,11.35
2023-03-03T12:24:16.962Z,11.45
2023-03-03T12:27:01.977Z,14.43
2023-03-03T12:29:53.825Z,12.90
2023-03-03T12:32:51.067Z,12.25
2023-03-03T12:38:05.301Z,10.75
2023-03-03T12:40:35.180Z,9.95
2023-03-03T12:43:17.594Z,11.20
2023-03-03T12:45:55.234Z,10.57
2023-03-03T12:48:41.195Z,9.75
2023-03-03T12:51:15.514Z,11.00
2023-03-03T12:54:14.715Z,10.90
2023-03-03T12:57:10.144Z,9.35
2023-03-03T12:59:41.536Z,10.05
2023-03-03T13:02:36.196Z,9.63
2023-03-03T13:05:05.803Z,10.88
2023-03-03T13:07:48.437Z,12.13
2023-03-03T13:10:35.925Z,11.50
2023-03-03T13:13:02.734Z,10.98
2023-03-03T13:15:51.827Z,11.45
2023-03-03T13:18:37.835Z,10.90
2023-03-03T13:21:13.153Z,10.95
2023-03-03T13:24:02.097Z,10.73
2023-03-03T13:26:39.488Z,11.73
2023-03-03T13:29:12.137Z,11.68
2023-03-03T13:31:42.187Z,10.70
2023-03-03T13:34:22.258Z,10.80
2023-03-03T13:36:58.959Z,10.20
2023-03-03T13:39:31.871Z,10.57
2023-03-03T13:42:23.691Z,11.60
2023-03-03T13:44:52.410Z,10.00
2023-03-03T13:47:32.449Z,11.45
2023-03-03T13:50:22.746Z,11.07
2023-03-03T13:52:57.699Z,10.65
2023-03-03T13:55:31.315Z,14.15
2023-03-03T13:58:16.373Z,11.43
2023-03-03T14:01:01.901Z,10.13
2023-03-03T14:03:53.759Z,13.48
2023-03-03T14:06:24.287Z,10.93
2023-03-03T14:09:09.080Z,10.40
2023-03-03T14:11:43.580Z,10.60
2023-03-03T14:14:43.137Z,11.27
2023-03-03T14:17:34.739Z,10.88
2023-03-03T14:20:14.168Z,10.40
2023-03-03T14:22:52.185Z,11.07
2023-03-03T14:25:19.282Z,10.40
2023-03-03T14:27:49.399Z,11.35
2023-03-03T14:30:22.450Z,12.20
2023-03-03T14:33:08.086Z,10.77
2023-03-03T14:35:51.104Z,13.55
2023-03-03T14:38:21.440Z,12.05
2023-03-03T14:40:49.928Z,11.27
2023-03-03T14:43:40.679Z,12.30
2023-03-03T14:46:36.598Z,11.23
2023-03-03T14:49:31.614Z,10.82
2023-03-03T14:52:12.342Z,11.32
2023-03-03T14:54:42.832Z,10.45
2023-03-03T14:57:17.005Z,10.50
2023-03-03T15:00:06.908Z,9.55
2023-03-03T15:02:44.604Z,10.85
2023-03-03T15:05:22.585Z,10.63
2023-03-03T15:07:57.543Z,10.25
2023-03-03T15:10:40.075Z,9.70
2023-03-03T15:13:19.438Z,10.43
2023-03-03T15:15:59.434Z,9.25
2023-03-03T15:18:34.681Z,10.13
2023-03-03T15:21:16.098Z,11.02
2023-03-03T15:27:16.854Z,11.70
2023-03-03T15:30:13.185Z,13.35
2023-03-03T15:36:15.088Z,10.25
2023-03-03T15:38:48.026Z,10.70
2023-03-03T15:41:46.927Z,10.60
2023-03-03T15:44:33.118Z,12.70
2023-03-03T15:47:38.190Z,9.93
2023-03-03T15:50:31.358Z,12.05
2023-03-03T15:53:17.655Z,9.45
2023-03-03T15:56:09.377Z,9.98
2023-03-03T15:59:07.365Z,9.52
2023-03-03T16:01:37.153Z,11.35
2023-03-03T16:04:19.814Z,8.30
2023-03-03T16:07:16.819Z,10.13
2023-03-03T16:10:02.111Z,9.88
2023-03-03T16:13:04.551Z,11.27
2023-03-03T16:15:58.667Z,10.52
2023-03-03T16:18:58.485Z,9.52
2023-03-03T16:21:54.224Z,9.35
2023-03-03T16:24:30.210Z,10.90
2023-03-03T16:27:02.163Z,8.05
2023-03-03T16:29:35.136Z,8.95
2023-03-03T16:32:23.720Z,9.02
2023-03-03T16:35:22.910Z,7.88
2023-03-03T16:38:16.979Z,8.98
2023-03-03T16:40:49.997Z,8.43
2023-03-03T16:43:24.715Z,6.45
2023-03-03T16:45:58.265Z,8.18
2023-03-03T16:48:35.363Z,9.02
2023-03-03T16:51:11.264Z,9.07
2023-03-03T16:53:40.984Z,8.55
2023-03-03T16:56:17.614Z,7.53
2023-03-03T16:58:59.109Z,9.18
2023-03-03T17:01:44.621Z,9.43
2023-03-03T17:04:46.014Z,9.88
2023-03-03T17:07:31.337Z,8.18
2023-03-03T17:10:17.419Z,10.07
2023-03-03T17:13:11.760Z,8.48
2023-03-03T17:15:50.013Z,8.93
2023-03-03T17:18:38.988Z,9.65
2023-03-03T17:21:20.248Z,8.60
2023-03-03T17:23:56.090Z,6.75
2023-03-03T17:26:50.768Z,8.13
2023-03-03T17:29:44.635Z,7.30
2023-03-03T17:32:39.414Z,7.90
2023-03-03T17:35:47.353Z,8.88
2023-03-03T17:38:33.679Z,10.20
2023-03-03T17:41:06.564Z,9.38
2023-03-03T17:44:07.906Z,8.82
2023-03-03T17:47:07.240Z,7.72
2023-03-03T17:49:41.349Z,8.60
2023-03-03T17:52:21.337Z,7.25
2023-03-03T17:55:04.675Z,7.20
2023-03-03T17:58:16.808Z,10.88
2023-03-03T18:01:18.347Z,10.43
2023-03-03T18:03:51.459Z,10.13
2023-03-03T18:06:52.090Z,8.07
2023-03-03T18:09:39.735Z,6.97
2023-03-03T18:12:29.452Z,8.02
2023-03-03T18:15:26.502Z,10.10
2023-03-03T18:18:06.693Z,8.40
2023-03-03T18:20:56.684Z,8.18
2023-03-03T18:23:43.836Z,8.95
2023-03-03T18:26:29.231Z,9.05
2023-03-03T18:29:21.153Z,10.10
2023-03-03T18:32:04.014Z,8.35
2023-03-03T18:34:35.250Z,12.02
2023-03-03T18:37:24.364Z,9.55
2023-03-03T18:40:13.892Z,11.02
2023-03-03T18:42:42.791Z,10.80
2023-03-03T18:45:19.559Z,10.82
2023-03-03T18:48:01.579Z,12.65
2023-03-03T18:50:43.002Z,8.65
2023-03-03T18:53:12.459Z,9.15
2023-03-03T18:55:45.771Z,8.55
2023-03-03T18:58:15.741Z,8.85
2023-03-03T19:01:10.565Z,9.25
2023-03-03T19:03:47.648Z,11.50
2023-03-03T19:06:52.480Z,7.80
2023-03-03T19:09:40.588Z,7.72
2023-03-03T19:12:13.536Z,8.82
2023-03-03T19:14:42.949Z,7.45
2023-03-03T19:17:18.609Z,5.93
2023-03-03T19:20:18.040Z,7.93
2023-03-03T19:22:49.178Z,8.32
2023-03-03T19:25:24.097Z,5.95
2023-03-03T19:28:15.982Z,7.20
2023-03-03T19:31:16.799Z,7.03
2023-03-03T19:34:22.458Z,6.32
2023-03-03T19:37:30.915Z,7.18
2023-03-03T19:40:31.510Z,7.25
2023-03-03T19:43:42.565Z,8.15
2023-03-03T19:46:36.397Z,15.30
2023-03-03T19:49:12.181Z,16.38
2023-03-03T19:52:10.537Z,16.27
2023-03-03T19:55:06.301Z,14.07
2023-03-03T19:57:55.696Z,13.23
2023-03-03T20:00:43.304Z,11.57
2023-03-03T20:03:43.619Z,12.32
2023-03-03T20:06:27.962Z,12.52
2023-03-03T20:09:02.010Z,13.35
2023-03-03T20:11:46.134Z,9.85
2023-03-03T20:14:37.798Z,9.98
2023-03-03T20:17:44.378Z,9.98
2023-03-03T20:20:43.567Z,9.30
2023-03-03T20:23:21.210Z,11.23
2023-03-03T20:26:01.866Z,9.38
2023-03-03T20:28:59.367Z,11.80
2023-03-03T20:31:58.429Z,8.90
2023-03-03T20:34:47.676Z,10.23
2023-03-03T20:37:33.523Z,7.78
2023-03-03T20:40:17.285Z,9.33
2023-03-03T20:43:04.981Z,7.75
2023-03-03T20:45:51.066Z,7.68
2023-03-03T20:48:32.166Z,7.82
2023-03-03T20:51:05.976Z,8.13
2023-03-03T20:53:55.389Z,8.50
2023-03-03T20:56:46.881Z,7.70
2023-03-03T20:59:32.126Z,7.63
2023-03-03T21:02:29.281Z,7.93
2023-03-03T21:05:16.047Z,7.93
2023-03-03T21:10:35.466Z,7.75
2023-03-03T21:13:39.469Z,8.73
2023-03-03T21:16:22.771Z,9.45
2023-03-03T21:19:02.946Z,10.90
2023-03-03T21:21:33.244Z,8.07
2023-03-03T21:24:00.123Z,8.95
2023-03-03T21:26:54.487Z,9.93
2023-03-03T21:29:32.880Z,8.57
2023-03-03T21:32:07.946Z,8.05
2023-03-03T21:34:40.662Z,8.10
2023-03-03T21:37:15.274Z,7.90
2023-03-03T21:39:43.708Z,10.80
2023-03-03T21:42:16.071Z,11.00
2023-03-03T21:44:49.464Z,10.18
2023-03-03T21:47:27.066Z,11.27
2023-03-03T21:49:53.898Z,11.38
2023-03-03T21:52:22.065Z,12.75
2023-03-03T21:54:51.079Z,10.02
2023-03-03T21:57:18.507Z,10.82
2023-03-03T21:59:45.256Z,10.73
2023-03-03T22:02:12.104Z,11.40
2023-03-03T22:04:38.976Z,9.30
2023-03-03T22:07:06.157Z,9.32
2023-03-03T22:09:32.955Z,9.45
2023-03-03T22:11:59.790Z,12.43
2023-03-03T22:14:26.825Z,7.90
2023-03-03T22:16:53.597Z,8.40
2023-03-03T22:19:20.572Z,8.90
2023-03-03T22:21:47.663Z,8.40
2023-03-03T22:24:14.889Z,9.60
2023-03-03T22:26:42.244Z,10.38
2023-03-03T22:29:09.098Z,8.98
2023-03-03T22:31:36.362Z,10.50
2023-03-03T22:34:03.239Z,10.45
2023-03-03T22:36:30.112Z,11.15
2023-03-03T22:38:56.829Z,12.60
2023-03-03T22:41:23.608Z,12.20
2023-03-03T22:43:50.590Z,12.20
2023-03-03T22:46:17.452Z,13.75
2023-03-03T22:48:44.301Z,14.40
2023-03-03T22:51:11.018Z,13.93
2023-03-03T22:53:37.820Z,16.00
2023-03-03T22:56:04.943Z,12.48
2023-03-03T22:58:31.720Z,11.93
2023-03-03T23:00:58.441Z,13.88
2023-03-03T23:03:25.440Z,10.70
2023-03-03T23:05:53.416Z,9.10
2023-03-03T23:08:21.031Z,9.82
2023-03-03T23:10:48.598Z,11.45
2023-03-03T23:13:16.138Z,11.02
2023-03-03T23:15:43.484Z,10.25
2023-03-03T23:18:10.484Z,11.13
2023-03-03T23:20:37.791Z,9.32
2023-03-03T23:23:04.925Z,10.30
2023-03-03T23:25:31.746Z,9.63
2023-03-03T23:27:58.620Z,9.50
2023-03-03T23:30:25.628Z,9.60
2023-03-03T23:32:53.681Z,9.60
2023-03-03T23:35:21.132Z,9.18
2023-03-03T23:37:48.001Z,9.15
2023-03-03T23:40:16.619Z,8.88
2023-03-03T23:42:43.764Z,7.97
2023-03-03T23:45:11.555Z,9.05
2023-03-03T23:47:38.489Z,9.35
2023-03-03T23:50:05.918Z,7.55
2023-03-03T23:52:32.808Z,9.30
2023-03-03T23:54:59.716Z,8.77
2023-03-03T23:57:26.472Z,9.50
2023-03-03T23:59:53.247Z,8.95
